createdAt,value
2023-04-27T00:01:43.816Z,80.40
2023-04-27T00:04:11.476Z,80.60
2023-04-27T00:06:38.970Z,80.70
2023-04-27T00:09:06.774Z,80.90
2023-04-27T00:11:34.380Z,81.30
2023-04-27T00:14:01.699Z,81.40
2023-04-27T00:16:28.924Z,81.80
2023-04-27T00:18:56.126Z,82.50
2023-04-27T00:21:23.424Z,82.50
2023-04-27T00:23:50.794Z,82.40
2023-04-27T00:26:18.081Z,82.30
2023-04-27T00:28:48.820Z,82.10
2023-04-27T00:31:16.135Z,82.30
2023-04-27T00:33:43.376Z,83.40
2023-04-27T00:36:10.869Z,83.60
2023-04-27T00:38:38.197Z,84.30
2023-04-27T00:41:07.447Z,84.30
2023-04-27T00:43:43.635Z,84.50
2023-04-27T00:46:13.311Z,84.90
2023-04-27T00:48:41.658Z,85.10
2023-04-27T00:51:09.120Z,85.50
2023-04-27T00:53:37.056Z,85.70
2023-04-27T00:56:05.640Z,85.90
2023-04-27T00:58:33.198Z,86.40
2023-04-27T01:01:01.111Z,87.00
2023-04-27T01:03:28.713Z,87.30
2023-04-27T01:05:56.949Z,87.10
2023-04-27T01:08:24.632Z,87.60
2023-04-27T01:10:52.024Z,87.60
2023-04-27T01:13:19.423Z,88.00
2023-04-27T01:15:46.678Z,89.30
2023-04-27T01:18:13.887Z,88.80
2023-04-27T01:20:42.194Z,89.10
2023-04-27T01:23:16.619Z,89.50
2023-04-27T01:25:44.734Z,89.70
2023-04-27T01:28:12.618Z,90.00
2023-04-27T01:30:39.909Z,90.50
2023-04-27T01:33:07.238Z,90.90
2023-04-27T01:35:34.624Z,90.90
2023-04-27T01:38:02.712Z,91.00
2023-04-27T01:40:29.990Z,91.00
2023-04-27T01:42:57.273Z,91.40
2023-04-27T01:45:25.081Z,91.50
2023-04-27T01:47:53.471Z,91.70
2023-04-27T01:50:21.717Z,91.90
2023-04-27T01:52:48.985Z,91.90
2023-04-27T01:55:16.315Z,92.10
2023-04-27T01:57:43.607Z,92.10
2023-04-27T02:00:12.525Z,92.40
2023-04-27T02:02:51.112Z,92.50
2023-04-27T02:05:19.219Z,92.50
2023-04-27T02:07:47.399Z,92.80
2023-04-27T02:10:14.769Z,93.10
2023-04-27T02:12:42.048Z,93.10
2023-04-27T02:15:09.893Z,93.10
2023-04-27T02:17:38.376Z,93.00
2023-04-27T02:20:07.649Z,93.10
2023-04-27T02:22:35.491Z,93.20
2023-04-27T02:25:03.080Z,93.60
2023-04-27T02:27:30.579Z,93.60
2023-04-27T02:29:58.590Z,93.70
2023-04-27T02:32:27.116Z,94.20
2023-04-27T02:34:55.362Z,94.30
2023-04-27T02:37:22.870Z,94.70
2023-04-27T02:39:50.166Z,94.70
2023-04-27T02:42:17.505Z,94.80
2023-04-27T02:44:45.088Z,95.20
2023-04-27T02:47:12.661Z,95.30
2023-04-27T02:49:40.148Z,95.20
2023-04-27T02:52:07.880Z,95.20
2023-04-27T02:54:35.296Z,95.30
2023-04-27T02:57:02.565Z,95.40
2023-04-27T02:59:29.769Z,95.60
2023-04-27T03:01:57.046Z,95.70
2023-04-27T03:04:24.417Z,95.90
2023-04-27T03:06:51.697Z,96.10
2023-04-27T03:09:18.916Z,96.10
2023-04-27T03:11:46.384Z,96.10
2023-04-27T03:14:13.726Z,96.10
2023-04-27T03:16:40.953Z,96.30
2023-04-27T03:19:08.440Z,96.20
2023-04-27T03:21:36.363Z,96.30
2023-04-27T03:24:03.886Z,96.50
2023-04-27T03:26:31.648Z,96.70
2023-04-27T03:28:58.886Z,96.90
2023-04-27T03:31:29.051Z,97.30
2023-04-27T03:33:57.096Z,97.50
2023-04-27T03:36:24.407Z,97.70
2023-04-27T03:38:51.525Z,97.70
2023-04-27T03:41:19.123Z,97.70
2023-04-27T03:43:47.560Z,97.80
2023-04-27T03:46:14.817Z,98.10
2023-04-27T03:48:43.813Z,98.30
2023-04-27T03:51:11.068Z,98.50
2023-04-27T03:53:39.000Z,98.50
2023-04-27T03:56:07.539Z,98.70
2023-04-27T03:58:34.765Z,99.20
2023-04-27T04:01:22.017Z,99.20
2023-04-27T04:03:51.715Z,99.30
2023-04-27T04:06:19.258Z,99.40
2023-04-27T04:08:46.486Z,99.40
2023-04-27T04:11:14.078Z,99.40
2023-04-27T04:13:42.127Z,99.60
2023-04-27T04:16:09.917Z,99.90
2023-04-27T04:18:37.567Z,99.80
2023-04-27T04:21:06.504Z,99.90
2023-04-27T04:23:33.916Z,99.90
2023-04-27T04:26:02.205Z,99.90
2023-04-27T04:28:33.539Z,99.90
2023-04-27T04:31:05.822Z,99.90
2023-04-27T04:33:33.692Z,99.90
2023-04-27T04:36:04.347Z,99.90
2023-04-27T04:38:32.892Z,99.90
2023-04-27T04:41:01.065Z,99.90
2023-04-27T04:43:28.474Z,99.90
2023-04-27T04:45:55.825Z,99.90
2023-04-27T04:48:24.102Z,99.90
2023-04-27T04:50:51.328Z,99.90
2023-04-27T04:53:18.726Z,99.90
2023-04-27T04:55:46.249Z,99.90
2023-04-27T04:58:13.793Z,99.90
2023-04-27T05:00:42.285Z,99.90
2023-04-27T05:03:09.710Z,99.90
2023-04-27T05:05:37.401Z,99.90
2023-04-27T05:08:04.951Z,99.90
2023-04-27T05:10:32.274Z,99.90
2023-04-27T05:12:59.473Z,99.90
2023-04-27T05:15:26.681Z,99.90
2023-04-27T05:17:54.375Z,99.90
2023-04-27T05:20:22.159Z,99.90
2023-04-27T05:22:49.355Z,99.90
2023-04-27T05:25:17.970Z,99.90
2023-04-27T05:27:45.298Z,99.90
2023-04-27T05:30:13.393Z,99.90
2023-04-27T05:32:40.704Z,99.90
2023-04-27T05:35:08.251Z,99.90
2023-04-27T05:37:35.656Z,99.90
2023-04-27T05:40:04.164Z,99.90
2023-04-27T05:42:32.202Z,99.90
2023-04-27T05:44:59.501Z,99.90
2023-04-27T05:47:26.772Z,99.90
2023-04-27T05:49:54.176Z,99.90
2023-04-27T05:52:21.978Z,99.90
2023-04-27T05:54:50.920Z,99.90
2023-04-27T05:57:18.276Z,99.90
2023-04-27T05:59:45.476Z,99.90
2023-04-27T06:02:12.733Z,99.90
2023-04-27T06:04:40.472Z,99.90
2023-04-27T06:07:12.174Z,99.90
2023-04-27T06:09:39.612Z,99.90
2023-04-27T06:12:07.890Z,99.90
2023-04-27T06:14:37.048Z,99.90
2023-04-27T06:17:04.818Z,99.90
2023-04-27T06:19:32.047Z,99.90
2023-04-27T06:21:59.275Z,99.90
2023-04-27T06:24:26.494Z,99.90
2023-04-27T06:26:54.477Z,99.90
2023-04-27T06:29:21.723Z,99.90
2023-04-27T06:31:49.394Z,99.90
2023-04-27T06:34:16.984Z,99.90
2023-04-27T06:36:44.193Z,99.90
2023-04-27T06:39:11.830Z,99.90
2023-04-27T06:41:39.172Z,99.90
2023-04-27T06:44:16.997Z,99.90
2023-04-27T06:46:44.309Z,99.90
2023-04-27T06:49:11.795Z,99.90
2023-04-27T06:51:39.195Z,99.80
2023-04-27T06:54:07.583Z,99.60
2023-04-27T06:56:34.797Z,99.40
2023-04-27T06:59:02.129Z,99.10
2023-04-27T07:01:29.460Z,99.00
2023-04-27T07:03:57.336Z,98.90
2023-04-27T07:06:25.979Z,98.90
2023-04-27T07:08:53.255Z,98.80
2023-04-27T07:11:20.602Z,98.60
2023-04-27T07:13:47.806Z,98.40
2023-04-27T07:16:16.178Z,98.10
2023-04-27T07:18:44.053Z,98.00
2023-04-27T07:21:11.623Z,97.90
2023-04-27T07:23:41.228Z,97.80
2023-04-27T07:26:09.958Z,97.50
2023-04-27T07:28:38.396Z,97.30
2023-04-27T07:31:06.761Z,96.60
2023-04-27T07:33:35.058Z,96.40
2023-04-27T07:36:02.713Z,96.10
2023-04-27T07:38:31.267Z,95.90
2023-04-27T07:41:01.626Z,95.60
2023-04-27T07:43:29.750Z,95.30
2023-04-27T07:45:58.421Z,95.00
2023-04-27T07:48:27.055Z,94.60
2023-04-27T07:50:54.733Z,94.20
2023-04-27T07:53:22.038Z,94.00
2023-04-27T07:55:49.333Z,93.40
2023-04-27T07:58:16.565Z,93.00
2023-04-27T08:00:43.974Z,92.90
2023-04-27T08:03:12.069Z,92.80
2023-04-27T08:05:39.644Z,92.70
2023-04-27T08:08:07.539Z,92.10
2023-04-27T08:10:35.606Z,91.90
2023-04-27T08:13:02.873Z,91.60
2023-04-27T08:15:30.405Z,91.20
2023-04-27T08:17:57.813Z,90.70
2023-04-27T08:20:25.130Z,90.30
2023-04-27T08:22:52.475Z,90.10
2023-04-27T08:25:19.978Z,90.00
2023-04-27T08:27:47.367Z,88.90
2023-04-27T08:30:17.600Z,86.70
2023-04-27T08:32:44.963Z,86.00
2023-04-27T08:35:13.381Z,84.90
2023-04-27T08:37:40.956Z,84.40
2023-04-27T08:40:11.334Z,84.50
2023-04-27T08:42:41.972Z,85.10
2023-04-27T08:45:09.740Z,85.10
2023-04-27T08:47:43.446Z,84.60
2023-04-27T08:50:12.722Z,84.20
2023-04-27T08:52:40.430Z,84.10
2023-04-27T08:55:08.404Z,83.20
2023-04-27T08:57:35.811Z,82.60
2023-04-27T09:00:12.311Z,82.20
2023-04-27T09:02:46.754Z,81.50
2023-04-27T09:05:21.875Z,80.50
2023-04-27T09:07:58.351Z,79.20
2023-04-27T09:10:25.808Z,79.50
2023-04-27T09:13:00.992Z,79.70
2023-04-27T09:15:29.338Z,79.60
2023-04-27T09:17:57.690Z,79.90
2023-04-27T09:20:27.046Z,79.50
2023-04-27T09:22:55.678Z,79.50
2023-04-27T09:25:31.439Z,78.80
2023-04-27T09:28:00.523Z,78.60
2023-04-27T09:30:29.421Z,78.40
2023-04-27T09:33:01.783Z,77.50
2023-04-27T09:35:33.350Z,76.70
2023-04-27T09:38:01.103Z,76.80
2023-04-27T09:40:31.214Z,77.10
2023-04-27T09:43:03.452Z,76.90
2023-04-27T09:45:32.747Z,76.70
2023-04-27T09:48:01.613Z,75.80
2023-04-27T09:50:28.970Z,75.60
2023-04-27T09:52:57.116Z,75.90
2023-04-27T09:55:45.987Z,75.30
2023-04-27T09:58:44.390Z,74.70
2023-04-27T10:01:26.995Z,74.50
2023-04-27T10:04:22.332Z,74.00
2023-04-27T10:07:04.561Z,73.70
2023-04-27T10:09:41.629Z,73.60
2023-04-27T10:12:27.922Z,73.30
2023-04-27T10:15:00.702Z,72.50
2023-04-27T10:17:33.565Z,72.30
2023-04-27T10:20:03.183Z,73.10
2023-04-27T10:22:53.119Z,73.10
2023-04-27T10:25:29.863Z,72.50
2023-04-27T10:28:01.165Z,72.40
2023-04-27T10:30:34.352Z,72.20
2023-04-27T10:33:11.903Z,71.60
2023-04-27T10:35:45.229Z,71.50
2023-04-27T10:38:17.144Z,71.10
2023-04-27T10:40:46.513Z,71.30
2023-04-27T10:43:16.219Z,70.80
2023-04-27T10:45:44.533Z,69.10
2023-04-27T10:48:15.883Z,69.20
2023-04-27T10:50:44.863Z,69.60
2023-04-27T10:53:12.478Z,69.70
2023-04-27T10:55:39.909Z,70.10
2023-04-27T10:58:07.215Z,70.80
2023-04-27T11:00:38.748Z,69.80
2023-04-27T11:03:16.597Z,69.50
2023-04-27T11:05:46.330Z,70.10
2023-04-27T11:08:18.500Z,68.80
2023-04-27T11:10:49.932Z,68.90
2023-04-27T11:13:25.751Z,69.40
2023-04-27T11:15:55.521Z,69.00
2023-04-27T11:18:29.945Z,68.40
2023-04-27T11:21:08.776Z,68.40
2023-04-27T11:23:39.868Z,69.10
2023-04-27T11:26:10.960Z,69.00
2023-04-27T11:28:38.909Z,66.10
2023-04-27T11:31:06.861Z,66.30
2023-04-27T11:33:35.943Z,66.70
2023-04-27T11:36:03.629Z,66.60
2023-04-27T11:38:34.250Z,66.30
2023-04-27T11:41:04.996Z,66.40
2023-04-27T11:43:33.114Z,66.30
2023-04-27T11:46:11.161Z,66.90
2023-04-27T11:48:39.248Z,66.70
2023-04-27T11:51:10.253Z,66.90
2023-04-27T11:53:39.377Z,67.50
2023-04-27T11:56:10.751Z,66.90
2023-04-27T11:58:39.315Z,66.70
2023-04-27T12:01:08.075Z,66.20
2023-04-27T12:03:35.719Z,66.20
2023-04-27T12:06:16.598Z,66.20
2023-04-27T12:08:51.149Z,65.90
2023-04-27T12:11:18.803Z,65.80
2023-04-27T12:13:47.267Z,65.20
2023-04-27T12:16:14.670Z,65.20
2023-04-27T12:18:42.137Z,63.80
2023-04-27T12:21:10.135Z,63.80
2023-04-27T12:23:37.495Z,63.10
2023-04-27T12:26:05.196Z,63.90
2023-04-27T12:28:32.570Z,63.20
2023-04-27T12:30:59.876Z,63.10
2023-04-27T12:33:27.174Z,63.20
2023-04-27T12:35:54.441Z,63.60
2023-04-27T12:38:22.555Z,61.90
2023-04-27T12:40:49.886Z,60.80
2023-04-27T12:43:17.330Z,62.00
2023-04-27T12:45:44.665Z,61.80
2023-04-27T12:48:12.037Z,61.40
2023-04-27T12:50:39.400Z,61.40
2023-04-27T12:53:06.941Z,61.60
2023-04-27T12:55:34.712Z,61.80
2023-04-27T12:58:03.289Z,62.20
2023-04-27T13:00:31.240Z,62.70
2023-04-27T13:02:58.702Z,61.40
2023-04-27T13:05:26.459Z,61.00
2023-04-27T13:07:53.861Z,61.00
2023-04-27T13:10:23.714Z,61.10
2023-04-27T13:12:51.044Z,61.40
2023-04-27T13:15:18.335Z,61.90
2023-04-27T13:17:45.564Z,61.80
2023-04-27T13:20:13.071Z,62.40
2023-04-27T13:22:40.853Z,60.70
2023-04-27T13:25:09.587Z,60.40
2023-04-27T13:27:36.886Z,60.00
2023-04-27T13:30:05.384Z,59.50
2023-04-27T13:32:32.894Z,59.70
2023-04-27T13:35:00.255Z,59.90
2023-04-27T13:37:27.452Z,59.80
2023-04-27T13:39:54.648Z,59.60
2023-04-27T13:42:23.962Z,58.10
2023-04-27T13:44:51.166Z,58.10
2023-04-27T13:47:18.496Z,57.40
2023-04-27T13:49:45.806Z,57.20
2023-04-27T13:52:14.058Z,56.50
2023-04-27T13:54:41.551Z,55.80
2023-04-27T13:57:08.832Z,55.10
2023-04-27T13:59:36.087Z,54.60
2023-04-27T14:02:03.612Z,54.40
2023-04-27T14:04:30.980Z,55.40
2023-04-27T14:06:58.350Z,54.30
2023-04-27T14:09:27.012Z,53.20
2023-04-27T14:11:57.270Z,53.30
2023-04-27T14:14:24.731Z,53.70
2023-04-27T14:16:53.576Z,53.10
2023-04-27T14:19:21.061Z,52.80
2023-04-27T14:21:49.789Z,52.70
2023-04-27T14:24:17.244Z,53.20
2023-04-27T14:26:47.404Z,52.90
2023-04-27T14:29:15.532Z,53.60
2023-04-27T14:31:43.623Z,52.80
2023-04-27T14:34:11.247Z,51.90
2023-04-27T14:36:38.488Z,52.20
2023-04-27T14:39:06.772Z,52.80
2023-04-27T14:41:35.444Z,52.70
2023-04-27T14:44:07.435Z,52.50
2023-04-27T14:46:35.139Z,53.60
2023-04-27T14:49:02.534Z,53.20
2023-04-27T14:51:29.924Z,52.80
2023-04-27T14:53:57.341Z,53.50
2023-04-27T14:56:25.111Z,52.40
2023-04-27T14:58:52.375Z,52.50
2023-04-27T15:01:19.673Z,53.30
2023-04-27T15:03:47.096Z,53.60
2023-04-27T15:06:14.579Z,53.80
2023-04-27T15:08:41.822Z,53.00
2023-04-27T15:11:09.060Z,52.60
2023-04-27T15:13:36.270Z,52.60
2023-04-27T15:16:05.051Z,52.50
2023-04-27T15:18:32.544Z,52.30
2023-04-27T15:21:00.147Z,51.60
2023-04-27T15:23:27.884Z,50.90
2023-04-27T15:25:57.324Z,51.70
2023-04-27T15:28:24.881Z,52.10
2023-04-27T15:30:52.445Z,52.10
2023-04-27T15:33:20.344Z,51.40
2023-04-27T15:35:47.691Z,51.60
2023-04-27T15:38:15.662Z,51.10
2023-04-27T15:40:42.917Z,51.40
2023-04-27T15:43:10.171Z,51.20
2023-04-27T15:45:37.782Z,50.40
2023-04-27T15:48:05.239Z,50.70
2023-04-27T15:50:32.746Z,50.80
2023-04-27T15:53:00.100Z,50.80
2023-04-27T15:55:27.344Z,50.80
2023-04-27T15:57:56.129Z,50.40
2023-04-27T16:00:24.638Z,50.50
2023-04-27T16:02:52.318Z,50.50
2023-04-27T16:05:19.670Z,51.10
2023-04-27T16:07:47.011Z,50.90
2023-04-27T16:10:14.370Z,50.90
2023-04-27T16:12:41.628Z,51.20
2023-04-27T16:15:11.379Z,51.30
2023-04-27T16:17:39.253Z,51.60
2023-04-27T16:20:07.734Z,51.80
2023-04-27T16:22:36.135Z,51.90
2023-04-27T16:25:06.594Z,52.30
2023-04-27T16:27:34.324Z,52.60
2023-04-27T16:30:01.690Z,52.70
2023-04-27T16:32:29.098Z,52.90
2023-04-27T16:34:56.450Z,52.80
2023-04-27T16:37:23.795Z,53.10
2023-04-27T16:39:51.140Z,53.00
2023-04-27T16:42:21.465Z,52.80
2023-04-27T16:44:48.737Z,53.10
2023-04-27T16:47:16.058Z,53.40
2023-04-27T16:49:46.239Z,53.50
2023-04-27T16:52:13.530Z,53.70
2023-04-27T16:54:40.889Z,53.80
2023-04-27T16:57:08.346Z,54.20
2023-04-27T16:59:35.886Z,54.60
2023-04-27T17:02:12.810Z,55.00
2023-04-27T17:04:44.105Z,55.00
2023-04-27T17:07:11.772Z,55.40
2023-04-27T17:09:39.891Z,55.30
2023-04-27T17:12:12.061Z,55.60
2023-04-27T17:14:39.383Z,55.70
2023-04-27T17:17:06.583Z,55.70
2023-04-27T17:19:34.088Z,55.80
2023-04-27T17:22:01.532Z,56.20
2023-04-27T17:24:28.788Z,56.30
2023-04-27T17:26:56.051Z,56.40
2023-04-27T17:29:23.305Z,56.50
2023-04-27T17:31:50.871Z,56.40
2023-04-27T17:34:18.224Z,56.50
2023-04-27T17:36:46.215Z,56.70
2023-04-27T17:39:14.577Z,56.90
2023-04-27T17:41:42.238Z,57.20
2023-04-27T17:44:12.033Z,57.30
2023-04-27T17:46:44.738Z,57.60
2023-04-27T17:49:12.189Z,57.80
2023-04-27T17:51:39.617Z,57.80
2023-04-27T17:54:06.834Z,58.00
2023-04-27T17:56:34.035Z,58.20
2023-04-27T17:59:01.522Z,58.20
2023-04-27T18:01:28.837Z,58.50
2023-04-27T18:03:56.662Z,58.50
2023-04-27T18:06:24.065Z,58.60
2023-04-27T18:08:51.298Z,58.70
2023-04-27T18:11:18.702Z,58.80
2023-04-27T18:13:47.024Z,58.80
2023-04-27T18:16:14.422Z,59.20
2023-04-27T18:18:41.830Z,59.40
2023-04-27T18:21:09.098Z,59.50
2023-04-27T18:23:41.216Z,59.70
2023-04-27T18:26:10.958Z,59.90
2023-04-27T18:28:40.237Z,60.00
2023-04-27T18:31:15.552Z,60.20
2023-04-27T18:33:45.321Z,60.40
2023-04-27T18:36:15.836Z,60.60
2023-04-27T18:38:43.244Z,60.60
2023-04-27T18:41:10.774Z,60.90
2023-04-27T18:43:38.084Z,61.10
2023-04-27T18:46:05.801Z,61.20
2023-04-27T18:48:33.597Z,61.50
2023-04-27T18:51:00.946Z,61.60
2023-04-27T18:53:28.447Z,61.90
2023-04-27T18:55:56.145Z,62.10
2023-04-27T18:58:23.791Z,62.10
2023-04-27T19:00:51.260Z,62.30
2023-04-27T19:03:18.795Z,62.40
2023-04-27T19:05:46.813Z,62.50
2023-04-27T19:08:14.121Z,62.70
2023-04-27T19:10:41.662Z,62.80
2023-04-27T19:13:08.908Z,62.80
2023-04-27T19:15:36.195Z,63.00
2023-04-27T19:18:10.619Z,63.20
2023-04-27T19:20:40.119Z,63.40
2023-04-27T19:23:09.306Z,63.60
2023-04-27T19:25:37.526Z,63.90
2023-04-27T19:28:05.780Z,64.00
2023-04-27T19:30:33.308Z,63.90
2023-04-27T19:33:00.665Z,64.60
2023-04-27T19:35:28.062Z,63.90
2023-04-27T19:37:55.976Z,63.90
2023-04-27T19:40:24.845Z,64.60
2023-04-27T19:42:52.182Z,63.90
2023-04-27T19:45:19.660Z,64.00
2023-04-27T19:47:48.616Z,64.00
2023-04-27T19:50:16.973Z,64.00
2023-04-27T19:52:44.234Z,64.10
2023-04-27T19:55:11.792Z,64.20
2023-04-27T19:57:39.119Z,64.20
2023-04-27T20:00:07.909Z,64.40
2023-04-27T20:02:42.393Z,64.50
2023-04-27T20:05:10.595Z,64.70
2023-04-27T20:07:38.204Z,65.00
2023-04-27T20:10:06.048Z,65.10
2023-04-27T20:12:51.402Z,65.20
2023-04-27T20:15:20.597Z,65.40
2023-04-27T20:17:48.006Z,65.50
2023-04-27T20:20:15.380Z,65.60
2023-04-27T20:22:42.778Z,66.00
2023-04-27T20:25:10.667Z,66.10
2023-04-27T20:27:37.898Z,66.00
2023-04-27T20:30:05.692Z,66.10
2023-04-27T20:32:34.358Z,67.00
2023-04-27T20:35:04.926Z,66.60
2023-04-27T20:37:32.447Z,66.70
2023-04-27T20:40:00.840Z,66.60
2023-04-27T20:42:29.625Z,66.80
2023-04-27T20:44:56.959Z,66.80
2023-04-27T20:47:24.300Z,66.90
2023-04-27T20:49:51.694Z,67.20
2023-04-27T20:52:19.105Z,67.00
2023-04-27T20:54:46.498Z,67.20
2023-04-27T20:57:14.411Z,67.30
2023-04-27T20:59:41.754Z,67.70
2023-04-27T21:02:09.113Z,67.70
2023-04-27T21:04:36.693Z,67.90
2023-04-27T21:07:04.098Z,68.10
2023-04-27T21:09:31.615Z,68.20
2023-04-27T21:11:59.251Z,68.40
2023-04-27T21:14:26.454Z,68.80
2023-04-27T21:16:53.873Z,69.00
2023-04-27T21:19:21.224Z,68.80
2023-04-27T21:21:48.883Z,68.60
2023-04-27T21:24:16.301Z,68.90
2023-04-27T21:26:43.556Z,69.00
2023-04-27T21:29:11.056Z,68.90
2023-04-27T21:31:38.347Z,69.10
2023-04-27T21:34:05.697Z,69.10
2023-04-27T21:36:33.946Z,69.20
2023-04-27T21:39:01.271Z,69.10
2023-04-27T21:41:28.704Z,69.00
2023-04-27T21:43:56.766Z,69.00
2023-04-27T21:46:24.311Z,69.20
2023-04-27T21:48:51.659Z,69.30
2023-04-27T21:51:19.020Z,69.40
2023-04-27T21:53:46.332Z,69.70
2023-04-27T21:56:13.749Z,69.60
2023-04-27T21:58:41.088Z,69.70
2023-04-27T22:01:08.347Z,69.60
2023-04-27T22:03:36.961Z,69.90
2023-04-27T22:06:04.826Z,70.00
2023-04-27T22:08:32.338Z,70.30
2023-04-27T22:10:59.633Z,70.30
2023-04-27T22:13:26.946Z,70.50
2023-04-27T22:15:54.432Z,70.90
2023-04-27T22:18:21.672Z,70.80
2023-04-27T22:20:49.423Z,70.90
2023-04-27T22:23:16.745Z,71.20
2023-04-27T22:25:44.197Z,71.40
2023-04-27T22:28:11.594Z,71.40
2023-04-27T22:30:40.867Z,72.30
2023-04-27T22:33:09.291Z,71.60
2023-04-27T22:35:37.395Z,72.00
2023-04-27T22:38:05.029Z,71.90
2023-04-27T22:40:32.351Z,72.30
2023-04-27T22:42:59.632Z,72.20
2023-04-27T22:45:26.853Z,72.70
2023-04-27T22:47:57.062Z,72.90
2023-04-27T22:50:24.406Z,73.30
2023-04-27T22:52:53.071Z,73.50
2023-04-27T22:55:20.452Z,73.80
2023-04-27T22:57:49.838Z,74.10
2023-04-27T23:00:17.413Z,74.20
2023-04-27T23:02:45.042Z,74.50
2023-04-27T23:05:12.533Z,74.30
2023-04-27T23:07:41.365Z,74.60
2023-04-27T23:10:09.149Z,74.60
2023-04-27T23:12:37.867Z,74.80
2023-04-27T23:15:05.700Z,74.80
2023-04-27T23:17:34.019Z,75.00
2023-04-27T23:20:02.231Z,74.90
2023-04-27T23:22:29.586Z,75.00
2023-04-27T23:24:56.899Z,75.30
2023-04-27T23:27:25.012Z,75.70
2023-04-27T23:29:52.572Z,75.70
2023-04-27T23:32:20.367Z,75.70
2023-04-27T23:34:47.719Z,75.90
2023-04-27T23:37:14.979Z,75.90
2023-04-27T23:39:42.192Z,76.20
2023-04-27T23:42:09.507Z,76.40
2023-04-27T23:44:36.653Z,76.60
2023-04-27T23:47:04.253Z,76.60
2023-04-27T23:49:31.565Z,77.20
2023-04-27T23:51:58.845Z,77.40
2023-04-27T23:54:30.948Z,77.80
2023-04-27T23:56:58.170Z,78.10
2023-04-27T23:59:25.639Z,78.10
